createdAt,value
2019-05-22T00:02:06.158Z,38.98
2019-05-22T00:04:39.720Z,35.63
2019-05-22T00:07:11.617Z,42.35
2019-05-22T00:09:42.311Z,41.80
2019-05-22T00:12:21.356Z,44.03
2019-05-22T00:14:52.822Z,39.75
2019-05-22T00:17:30.739Z,40.43
2019-05-22T00:20:03.348Z,41.68
2019-05-22T00:22:35.755Z,40.17
2019-05-22T00:25:07.583Z,40.48
2019-05-22T00:27:37.962Z,43.92
2019-05-22T00:30:10.032Z,40.25
2019-05-22T00:32:39.386Z,48.42
2019-05-22T00:35:10.380Z,43.80
2019-05-22T00:37:40.389Z,39.55
2019-05-22T00:40:12.079Z,39.63
2019-05-22T00:42:45.215Z,38.30
2019-05-22T00:45:17.913Z,39.85
2019-05-22T00:47:49.443Z,41.98
2019-05-22T00:50:24.886Z,45.05
2019-05-22T00:53:22.350Z,45.03
2019-05-22T00:56:13.909Z,44.42
2019-05-22T00:58:50.336Z,48.68
2019-05-22T01:01:26.628Z,43.75
2019-05-22T01:03:58.421Z,45.75
2019-05-22T01:06:30.310Z,39.58
2019-05-22T01:09:02.897Z,44.38
2019-05-22T01:11:34.148Z,44.55
2019-05-22T01:14:04.815Z,50.50
2019-05-22T01:16:34.110Z,54.70
2019-05-22T01:19:06.082Z,46.60
2019-05-22T01:21:37.631Z,54.33
2019-05-22T01:24:08.447Z,50.08
2019-05-22T01:26:39.315Z,52.85
2019-05-22T01:29:09.077Z,50.20
2019-05-22T01:31:44.287Z,54.35
2019-05-22T01:34:19.035Z,53.65
2019-05-22T01:37:01.631Z,52.85
2019-05-22T01:39:51.920Z,47.08
2019-05-22T01:42:28.281Z,50.30
2019-05-22T01:45:05.793Z,53.08
2019-05-22T01:48:02.627Z,50.55
2019-05-22T01:50:50.900Z,47.88
2019-05-22T01:53:23.956Z,55.73
2019-05-22T01:56:06.489Z,52.10
2019-05-22T01:58:37.524Z,50.70
2019-05-22T02:01:19.922Z,52.43
2019-05-22T02:03:50.806Z,52.60
2019-05-22T02:06:23.202Z,54.50
2019-05-22T02:08:57.153Z,50.70
2019-05-22T02:11:28.435Z,49.53
2019-05-22T02:14:06.312Z,56.10
2019-05-22T02:16:36.625Z,50.65
2019-05-22T02:19:06.423Z,44.93
2019-05-22T02:21:35.875Z,48.08
2019-05-22T02:24:06.391Z,45.92
2019-05-22T02:26:37.052Z,46.85
2019-05-22T02:29:08.440Z,51.07
2019-05-22T02:31:39.410Z,49.27
2019-05-22T02:34:09.414Z,45.83
2019-05-22T02:36:40.639Z,49.88
2019-05-22T02:39:15.780Z,51.88
2019-05-22T02:41:48.639Z,48.28
2019-05-22T02:44:19.247Z,48.42
2019-05-22T02:46:48.960Z,43.95
2019-05-22T02:49:18.362Z,52.38
2019-05-22T02:51:48.601Z,48.50
2019-05-22T02:54:19.250Z,52.58
2019-05-22T02:56:48.826Z,45.08
2019-05-22T02:59:19.690Z,42.25
2019-05-22T03:01:49.749Z,36.83
2019-05-22T03:04:21.229Z,40.08
2019-05-22T03:06:53.120Z,38.63
2019-05-22T03:09:25.638Z,38.70
2019-05-22T03:12:03.475Z,38.30
2019-05-22T03:14:35.117Z,36.73
2019-05-22T03:17:07.832Z,35.08
2019-05-22T03:19:45.149Z,33.65
2019-05-22T03:22:25.124Z,33.42
2019-05-22T03:24:56.719Z,34.48
2019-05-22T03:27:39.005Z,33.75
2019-05-22T03:30:13.991Z,36.55
2019-05-22T03:32:44.708Z,39.00
2019-05-22T03:35:14.231Z,36.03
2019-05-22T03:37:44.019Z,37.40
2019-05-22T03:40:14.021Z,39.78
2019-05-22T03:42:43.906Z,39.23
2019-05-22T03:45:14.535Z,39.98
2019-05-22T03:47:45.193Z,40.80
2019-05-22T03:50:15.475Z,40.65
2019-05-22T03:52:44.769Z,38.20
2019-05-22T03:55:16.181Z,41.43
2019-05-22T03:57:45.841Z,43.90
2019-05-22T04:00:19.701Z,33.10
2019-05-22T04:02:51.776Z,38.30
2019-05-22T04:05:23.092Z,35.05
2019-05-22T04:07:54.514Z,29.40
2019-05-22T04:10:25.913Z,30.20
2019-05-22T04:12:56.491Z,36.65
2019-05-22T04:15:26.683Z,29.13
2019-05-22T04:17:59.077Z,32.85
2019-05-22T04:20:29.644Z,31.00
2019-05-22T04:23:00.851Z,22.80
2019-05-22T04:25:30.931Z,31.45
2019-05-22T04:28:00.704Z,23.67
2019-05-22T04:30:30.015Z,29.87
2019-05-22T04:32:59.486Z,26.12
2019-05-22T04:35:29.104Z,23.37
2019-05-22T04:37:58.761Z,22.67
2019-05-22T04:40:54.317Z,28.77
2019-05-22T04:43:27.364Z,22.23
2019-05-22T04:45:58.233Z,21.80
2019-05-22T04:48:29.312Z,23.67
2019-05-22T04:51:02.175Z,21.77
2019-05-22T04:53:31.769Z,26.60
2019-05-22T04:56:01.185Z,23.20
2019-05-22T04:58:31.266Z,24.33
2019-05-22T05:01:01.024Z,20.80
2019-05-22T05:03:31.078Z,24.87
2019-05-22T05:06:00.661Z,27.50
2019-05-22T05:08:30.629Z,22.37
2019-05-22T05:11:02.818Z,23.07
2019-05-22T05:13:32.513Z,24.67
2019-05-22T05:16:02.494Z,22.10
2019-05-22T05:18:32.685Z,21.75
2019-05-22T05:21:02.051Z,27.22
2019-05-22T05:23:31.508Z,25.53
2019-05-22T05:26:01.240Z,24.47
2019-05-22T05:28:30.775Z,28.27
2019-05-22T05:31:00.167Z,26.03
2019-05-22T05:33:30.230Z,32.23
2019-05-22T05:35:59.730Z,30.97
2019-05-22T05:38:35.995Z,30.47
2019-05-22T05:41:05.712Z,31.07
2019-05-22T05:43:35.468Z,28.98
2019-05-22T05:46:05.525Z,28.50
2019-05-22T05:48:35.998Z,26.00
2019-05-22T05:51:43.084Z,23.73
2019-05-22T05:54:23.417Z,29.60
2019-05-22T05:56:55.238Z,31.25
2019-05-22T05:59:26.458Z,26.30
2019-05-22T06:01:56.530Z,33.30
2019-05-22T06:04:34.699Z,24.47
2019-05-22T06:07:24.232Z,22.93
2019-05-22T06:10:33.588Z,24.75
2019-05-22T06:13:05.872Z,26.33
2019-05-22T06:16:09.123Z,22.40
2019-05-22T06:18:40.004Z,26.95
2019-05-22T06:21:09.898Z,30.67
2019-05-22T06:24:36.569Z,23.47
2019-05-22T06:27:19.045Z,27.33
2019-05-22T06:29:57.238Z,21.35
2019-05-22T06:32:54.708Z,23.65
2019-05-22T06:35:26.873Z,25.50
2019-05-22T06:38:34.128Z,24.07
2019-05-22T06:41:03.545Z,24.47
2019-05-22T06:44:38.935Z,21.73
2019-05-22T06:47:11.384Z,25.00
2019-05-22T06:49:45.296Z,20.68
2019-05-22T06:52:15.522Z,22.57
2019-05-22T06:54:45.485Z,26.07
2019-05-22T06:57:34.393Z,17.92
2019-05-22T07:00:18.027Z,15.03
2019-05-22T07:02:48.028Z,18.85
2019-05-22T07:05:17.991Z,16.02
2019-05-22T07:07:47.881Z,15.53
2019-05-22T07:10:17.348Z,20.52
2019-05-22T07:12:50.561Z,14.98
2019-05-22T07:15:33.310Z,15.23
2019-05-22T07:18:03.061Z,13.68
2019-05-22T07:20:35.748Z,23.57
2019-05-22T07:23:06.956Z,17.70
2019-05-22T07:25:39.762Z,16.35
2019-05-22T07:28:10.239Z,17.87
2019-05-22T07:30:42.180Z,20.85
2019-05-22T07:33:12.275Z,19.25
2019-05-22T07:36:04.620Z,21.70
2019-05-22T07:38:14.765Z,21.75
2019-05-22T07:40:49.662Z,22.25
2019-05-22T07:43:17.035Z,20.30
2019-05-22T07:45:46.592Z,21.30
2019-05-22T07:48:17.341Z,20.12
2019-05-22T07:50:50.088Z,19.25
2019-05-22T07:53:19.531Z,17.48
2019-05-22T07:55:52.478Z,16.35
2019-05-22T07:58:22.718Z,17.27
2019-05-22T08:00:55.738Z,15.45
2019-05-22T08:03:25.577Z,17.07
2019-05-22T08:05:56.778Z,17.42
2019-05-22T08:08:27.610Z,15.83
2019-05-22T08:10:59.147Z,19.15
2019-05-22T08:13:30.565Z,12.95
2019-05-22T08:15:59.936Z,15.05
2019-05-22T08:18:32.565Z,14.13
2019-05-22T08:21:02.394Z,15.10
2019-05-22T08:23:32.243Z,18.35
2019-05-22T08:26:01.588Z,13.75
2019-05-22T08:28:33.061Z,12.47
2019-05-22T08:31:04.131Z,14.63
2019-05-22T08:33:35.235Z,11.00
2019-05-22T08:36:05.135Z,12.30
2019-05-22T08:38:35.963Z,12.13
2019-05-22T08:41:08.272Z,11.33
2019-05-22T08:44:03.101Z,13.85
2019-05-22T08:46:10.110Z,14.15
2019-05-22T08:48:47.436Z,10.20
2019-05-22T08:51:13.628Z,16.27
2019-05-22T08:53:48.357Z,11.25
2019-05-22T08:56:18.639Z,13.38
2019-05-22T08:58:48.740Z,11.38
2019-05-22T09:01:18.066Z,13.58
2019-05-22T09:03:47.964Z,13.03
2019-05-22T09:06:17.456Z,10.05
2019-05-22T09:08:47.043Z,9.43
2019-05-22T09:11:16.430Z,8.45
2019-05-22T09:13:45.907Z,10.43
2019-05-22T09:16:16.725Z,11.08
2019-05-22T09:18:46.188Z,11.40
2019-05-22T09:21:16.504Z,7.80
2019-05-22T09:23:48.244Z,8.48
2019-05-22T09:26:18.364Z,8.03
2019-05-22T09:28:47.846Z,8.20
2019-05-22T09:31:17.883Z,8.70
2019-05-22T09:33:47.505Z,10.13
2019-05-22T09:36:17.212Z,10.53
2019-05-22T09:38:46.970Z,9.88
2019-05-22T09:41:16.445Z,9.93
2019-05-22T09:43:46.011Z,11.30
2019-05-22T09:46:17.946Z,8.95
2019-05-22T09:48:47.583Z,10.08
2019-05-22T09:51:17.043Z,8.70
2019-05-22T09:53:46.312Z,13.75
2019-05-22T09:56:15.906Z,15.28
2019-05-22T09:58:45.883Z,9.08
2019-05-22T10:01:15.315Z,9.83
2019-05-22T10:03:45.089Z,7.47
2019-05-22T10:06:14.553Z,9.43
2019-05-22T10:08:43.929Z,8.75
2019-05-22T10:11:14.112Z,11.95
2019-05-22T10:13:43.669Z,8.30
2019-05-22T10:16:13.536Z,8.68
2019-05-22T10:18:42.950Z,7.83
2019-05-22T10:21:13.066Z,9.65
2019-05-22T10:23:43.787Z,9.23
2019-05-22T10:26:13.590Z,11.00
2019-05-22T10:28:43.951Z,7.80
2019-05-22T10:31:16.153Z,8.13
2019-05-22T10:33:44.929Z,11.33
2019-05-22T10:36:15.620Z,8.33
2019-05-22T10:38:45.103Z,7.65
2019-05-22T10:41:15.885Z,7.70
2019-05-22T10:43:45.821Z,11.22
2019-05-22T10:46:15.306Z,9.60
2019-05-22T10:48:45.489Z,9.73
2019-05-22T10:51:14.874Z,7.58
2019-05-22T10:53:44.427Z,7.87
2019-05-22T10:56:14.902Z,7.50
2019-05-22T10:58:44.275Z,7.45
2019-05-22T11:01:14.625Z,6.33
2019-05-22T11:03:43.964Z,8.15
2019-05-22T11:06:14.484Z,8.68
2019-05-22T11:08:43.866Z,12.53
2019-05-22T11:11:14.233Z,7.85
2019-05-22T11:13:59.836Z,6.55
2019-05-22T11:16:15.581Z,6.03
2019-05-22T11:18:45.560Z,13.43
2019-05-22T11:21:16.220Z,10.63
2019-05-22T11:23:52.082Z,7.03
2019-05-22T11:26:16.860Z,6.75
2019-05-22T11:28:46.563Z,8.13
2019-05-22T11:31:16.931Z,8.48
2019-05-22T11:33:46.948Z,8.05
2019-05-22T11:36:18.045Z,6.12
2019-05-22T11:38:47.436Z,7.08
2019-05-22T11:41:17.559Z,5.70
2019-05-22T11:43:46.948Z,6.62
2019-05-22T11:46:17.409Z,5.58
2019-05-22T11:48:46.867Z,5.47
2019-05-22T11:51:16.238Z,6.08
2019-05-22T11:53:45.601Z,9.20
2019-05-22T11:56:14.978Z,6.15
2019-05-22T11:58:47.890Z,7.92
2019-05-22T12:01:17.389Z,9.28
2019-05-22T12:03:47.619Z,8.80
2019-05-22T12:06:17.292Z,8.38
2019-05-22T12:08:48.583Z,8.55
2019-05-22T12:11:20.380Z,9.08
2019-05-22T12:13:49.918Z,6.12
2019-05-22T12:16:19.496Z,8.08
2019-05-22T12:18:49.756Z,6.28
2019-05-22T12:21:19.075Z,6.20
2019-05-22T12:23:48.584Z,5.12
2019-05-22T12:26:19.151Z,7.12
2019-05-22T12:28:48.621Z,7.22
2019-05-22T12:31:19.443Z,7.30
2019-05-22T12:33:49.617Z,7.05
2019-05-22T12:36:19.204Z,7.17
2019-05-22T12:38:48.559Z,8.23
2019-05-22T12:41:19.827Z,6.12
2019-05-22T12:43:49.200Z,7.70
2019-05-22T12:46:19.818Z,10.28
2019-05-22T12:48:49.630Z,6.33
2019-05-22T12:51:20.638Z,10.63
2019-05-22T12:53:50.130Z,10.13
2019-05-22T12:56:19.621Z,9.38
2019-05-22T12:58:49.363Z,17.90
2019-05-22T13:01:20.893Z,15.10
2019-05-22T13:03:51.222Z,4.70
2019-05-22T13:06:21.334Z,7.75
2019-05-22T13:08:50.727Z,7.05
2019-05-22T13:11:20.689Z,7.67
2019-05-22T13:13:50.196Z,8.65
2019-05-22T13:16:19.894Z,5.15
2019-05-22T13:18:50.436Z,10.28
2019-05-22T13:21:22.570Z,6.83
2019-05-22T13:23:53.348Z,7.28
2019-05-22T13:26:24.227Z,7.53
2019-05-22T13:28:54.770Z,5.00
2019-05-22T13:31:24.949Z,5.37
2019-05-22T13:33:55.092Z,5.17
2019-05-22T13:36:24.639Z,6.67
2019-05-22T13:38:54.028Z,6.97
2019-05-22T13:41:23.431Z,8.80
2019-05-22T13:43:54.036Z,7.80
2019-05-22T13:46:24.127Z,7.60
2019-05-22T13:48:53.524Z,12.15
2019-05-22T13:51:22.974Z,7.78
2019-05-22T13:53:53.777Z,8.80
2019-05-22T13:56:25.597Z,5.30
2019-05-22T13:58:56.198Z,4.20
2019-05-22T14:01:26.190Z,7.95
2019-05-22T14:03:55.500Z,3.52
2019-05-22T14:06:24.934Z,4.83
2019-05-22T14:08:54.336Z,3.60
2019-05-22T14:11:24.131Z,3.12
2019-05-22T14:13:54.020Z,6.15
2019-05-22T14:16:23.786Z,4.95
2019-05-22T14:18:53.139Z,6.33
2019-05-22T14:21:22.571Z,6.25
2019-05-22T14:23:52.069Z,3.42
2019-05-22T14:26:21.427Z,3.83
2019-05-22T14:28:51.127Z,7.20
2019-05-22T14:31:20.674Z,3.85
2019-05-22T14:33:50.692Z,4.90
2019-05-22T14:36:20.254Z,5.62
2019-05-22T14:38:53.508Z,6.78
2019-05-22T14:41:25.731Z,4.12
2019-05-22T14:43:55.091Z,5.03
2019-05-22T14:46:24.735Z,4.62
2019-05-22T14:48:54.864Z,4.92
2019-05-22T14:51:24.523Z,4.85
2019-05-22T14:53:56.340Z,4.85
2019-05-22T14:56:26.344Z,3.47
2019-05-22T14:58:55.741Z,6.85
2019-05-22T15:01:26.549Z,5.25
2019-05-22T15:03:56.133Z,4.17
2019-05-22T15:06:25.962Z,5.62
2019-05-22T15:08:55.342Z,7.47
2019-05-22T15:11:25.288Z,5.20
2019-05-22T15:13:56.380Z,7.90
2019-05-22T15:16:25.691Z,5.60
2019-05-22T15:18:55.067Z,5.85
2019-05-22T15:21:24.720Z,6.08
2019-05-22T15:23:55.221Z,3.33
2019-05-22T15:26:24.933Z,5.62
2019-05-22T15:28:54.222Z,6.65
2019-05-22T15:31:23.582Z,6.15
2019-05-22T15:33:53.044Z,5.35
2019-05-22T15:36:24.161Z,5.42
2019-05-22T15:38:56.482Z,7.10
2019-05-22T15:41:27.131Z,2.70
2019-05-22T15:43:57.874Z,3.87
2019-05-22T15:46:29.236Z,3.92
2019-05-22T15:49:00.369Z,2.65
2019-05-22T15:51:33.439Z,2.45
2019-05-22T15:54:04.488Z,4.08
2019-05-22T15:56:36.086Z,2.35
2019-05-22T15:59:07.516Z,3.42
2019-05-22T16:01:38.195Z,7.75
2019-05-22T16:04:10.943Z,2.95
2019-05-22T16:06:40.707Z,5.47
2019-05-22T16:09:14.074Z,4.42
2019-05-22T16:11:44.134Z,6.95
2019-05-22T16:14:15.975Z,5.25
2019-05-22T16:16:49.222Z,3.12
2019-05-22T16:19:19.909Z,2.02
2019-05-22T16:21:51.317Z,3.80
2019-05-22T16:24:20.705Z,2.65
2019-05-22T16:26:49.998Z,4.10
2019-05-22T16:29:19.663Z,3.45
2019-05-22T16:31:53.881Z,3.75
2019-05-22T16:34:23.196Z,2.83
2019-05-22T16:36:53.078Z,3.00
2019-05-22T16:39:23.831Z,5.15
2019-05-22T16:41:53.543Z,2.83
2019-05-22T16:44:23.321Z,3.52
2019-05-22T16:46:53.468Z,2.00
2019-05-22T16:49:23.032Z,4.55
2019-05-22T16:51:52.591Z,3.10
2019-05-22T16:54:22.386Z,3.87
2019-05-22T16:56:53.011Z,4.70
2019-05-22T16:59:22.771Z,4.03
2019-05-22T17:01:59.200Z,4.47
2019-05-22T17:04:24.194Z,4.95
2019-05-22T17:06:53.674Z,2.47
2019-05-22T17:09:24.691Z,5.80
2019-05-22T17:11:54.789Z,3.15
2019-05-22T17:14:25.031Z,3.45
2019-05-22T17:16:54.880Z,1.87
2019-05-22T17:19:27.641Z,5.05
2019-05-22T17:21:55.803Z,4.22
2019-05-22T17:24:26.835Z,1.95
2019-05-22T17:26:57.400Z,4.58
2019-05-22T17:29:27.247Z,2.65
2019-05-22T17:31:57.351Z,3.08
2019-05-22T17:34:33.975Z,2.00
2019-05-22T17:37:11.593Z,3.72
2019-05-22T17:39:44.273Z,2.37
2019-05-22T17:42:15.893Z,3.42
2019-05-22T17:44:49.795Z,2.05
2019-05-22T17:47:24.252Z,1.22
2019-05-22T17:49:54.598Z,2.42
2019-05-22T17:52:24.452Z,3.52
2019-05-22T17:54:55.507Z,2.45
2019-05-22T17:57:25.283Z,2.10
2019-05-22T17:59:55.718Z,2.98
2019-05-22T18:02:29.756Z,2.98
2019-05-22T18:04:59.455Z,2.77
2019-05-22T18:07:29.456Z,2.45
2019-05-22T18:09:59.372Z,1.42
2019-05-22T18:12:28.748Z,2.40
2019-05-22T18:14:58.110Z,2.40
2019-05-22T18:17:28.144Z,5.58
2019-05-22T18:19:57.507Z,2.20
2019-05-22T18:22:27.018Z,2.58
2019-05-22T18:24:56.444Z,1.75
2019-05-22T18:27:26.175Z,2.45
2019-05-22T18:29:55.527Z,10.55
2019-05-22T18:32:24.913Z,4.65
2019-05-22T18:34:54.267Z,1.98
2019-05-22T18:37:23.602Z,1.02
2019-05-22T18:39:53.211Z,2.52
2019-05-22T18:42:24.197Z,3.58
2019-05-22T18:44:53.576Z,3.20
2019-05-22T18:47:23.693Z,3.45
2019-05-22T18:49:53.494Z,2.30
2019-05-22T18:52:38.288Z,3.37
2019-05-22T18:54:54.091Z,1.57
2019-05-22T18:57:28.248Z,3.67
2019-05-22T19:00:02.789Z,2.52
2019-05-22T19:02:28.455Z,4.42
2019-05-22T19:04:57.825Z,5.17
2019-05-22T19:07:27.126Z,2.33
2019-05-22T19:09:56.446Z,3.00
2019-05-22T19:12:25.796Z,2.83
2019-05-22T19:14:55.215Z,4.00
2019-05-22T19:17:26.559Z,3.02
2019-05-22T19:19:56.551Z,2.17
2019-05-22T19:22:26.580Z,3.72
2019-05-22T19:24:55.964Z,2.90
2019-05-22T19:27:28.060Z,2.00
2019-05-22T19:29:57.391Z,3.22
2019-05-22T19:32:26.872Z,2.58
2019-05-22T19:34:56.271Z,3.62
2019-05-22T19:37:25.738Z,3.35
2019-05-22T19:39:55.541Z,1.12
2019-05-22T19:42:24.938Z,1.82
2019-05-22T19:44:54.356Z,3.00
2019-05-22T19:47:24.872Z,1.98
2019-05-22T19:49:54.260Z,2.42
2019-05-22T19:52:39.026Z,3.85
2019-05-22T19:55:00.307Z,2.27
2019-05-22T19:57:30.331Z,2.15
2019-05-22T19:59:59.637Z,3.27
2019-05-22T20:02:29.818Z,2.70
2019-05-22T20:04:59.372Z,2.52
2019-05-22T20:07:29.148Z,4.97
2019-05-22T20:09:58.659Z,3.90
2019-05-22T20:12:29.361Z,3.33
2019-05-22T20:14:58.949Z,4.40
2019-05-22T20:17:28.716Z,2.60
2019-05-22T20:19:57.973Z,2.70
2019-05-22T20:22:27.251Z,4.22
2019-05-22T20:24:56.591Z,4.20
2019-05-22T20:27:26.085Z,3.15
2019-05-22T20:29:55.663Z,4.72
2019-05-22T20:32:26.054Z,3.62
2019-05-22T20:34:55.763Z,4.12
2019-05-22T20:37:25.458Z,4.58
2019-05-22T20:39:54.807Z,4.58
2019-05-22T20:42:24.612Z,3.92
2019-05-22T20:44:54.083Z,3.02
2019-05-22T20:47:25.290Z,2.83
2019-05-22T20:49:55.100Z,2.98
2019-05-22T20:52:27.014Z,3.02
2019-05-22T20:54:57.773Z,2.20
2019-05-22T20:57:28.226Z,2.75
2019-05-22T20:59:59.541Z,2.77
2019-05-22T21:02:29.909Z,3.35
2019-05-22T21:04:59.532Z,7.17
2019-05-22T21:07:36.893Z,2.43
2019-05-22T21:10:08.035Z,2.12
2019-05-22T21:12:39.292Z,2.45
2019-05-22T21:15:08.674Z,3.50
2019-05-22T21:17:38.305Z,4.10
2019-05-22T21:20:08.653Z,5.00
2019-05-22T21:22:38.776Z,4.47
2019-05-22T21:25:08.796Z,5.28
2019-05-22T21:27:38.519Z,3.77
2019-05-22T21:30:10.072Z,3.13
2019-05-22T21:32:40.519Z,5.83
2019-05-22T21:35:10.278Z,6.13
2019-05-22T21:37:41.153Z,3.60
2019-05-22T21:40:12.181Z,3.80
2019-05-22T21:42:41.836Z,5.20
2019-05-22T21:45:13.008Z,4.07
2019-05-22T21:47:43.481Z,7.20
2019-05-22T21:50:12.871Z,6.47
2019-05-22T21:52:43.262Z,5.60
2019-05-22T21:55:13.700Z,6.67
2019-05-22T21:57:44.659Z,6.07
2019-05-22T22:00:21.982Z,6.93
2019-05-22T22:02:52.339Z,6.33
2019-05-22T22:05:22.399Z,7.37
2019-05-22T22:07:51.759Z,6.40
2019-05-22T22:10:21.614Z,4.53
2019-05-22T22:12:52.276Z,4.67
2019-05-22T22:15:22.351Z,5.07
2019-05-22T22:17:51.938Z,5.70
2019-05-22T22:20:22.208Z,3.80
2019-05-22T22:22:52.002Z,7.43
2019-05-22T22:25:23.797Z,5.17
2019-05-22T22:27:53.363Z,5.17
2019-05-22T22:30:29.848Z,3.33
2019-05-22T22:33:04.246Z,4.73
2019-05-22T22:35:34.256Z,4.77
2019-05-22T22:38:04.840Z,4.87
2019-05-22T22:40:34.123Z,3.60
2019-05-22T22:43:06.163Z,3.57
2019-05-22T22:45:53.617Z,3.93
2019-05-22T22:48:26.100Z,5.50
2019-05-22T22:50:55.624Z,5.97
2019-05-22T22:53:25.512Z,6.03
2019-05-22T22:55:55.383Z,4.70
2019-05-22T22:58:24.774Z,5.40
2019-05-22T23:00:56.096Z,4.07
2019-05-22T23:03:27.853Z,4.90
2019-05-22T23:05:58.546Z,5.57
2019-05-22T23:08:31.294Z,4.43
2019-05-22T23:11:01.411Z,4.40
2019-05-22T23:13:32.056Z,6.93
2019-05-22T23:16:02.042Z,4.03
2019-05-22T23:19:15.901Z,3.47
2019-05-22T23:21:45.429Z,4.57
2019-05-22T23:24:15.925Z,4.70
2019-05-22T23:26:47.403Z,5.93
2019-05-22T23:29:19.614Z,3.43
2019-05-22T23:31:49.699Z,6.13
2019-05-22T23:34:19.680Z,3.43
2019-05-22T23:36:49.577Z,6.20
2019-05-22T23:39:21.666Z,5.30
2019-05-22T23:41:56.249Z,2.50
2019-05-22T23:44:25.206Z,3.57
2019-05-22T23:46:56.074Z,3.43
2019-05-22T23:49:26.156Z,4.23
2019-05-22T23:51:55.616Z,3.50
2019-05-22T23:54:25.894Z,3.60
2019-05-22T23:56:55.755Z,3.03
2019-05-22T23:59:25.111Z,4.03
